Time,TemperatureF,DewpointF,PressureIn,WindDirection,WindDirectionDegrees,WindSpeedMPH,WindSpeedGustMPH,Humidity,HourlyPrecipIn,Conditions,Clouds,dailyrainin,SoftwareType,DateUTC
2013-06-19 00:02:00,65.8,62.4,29.97,North,0,0.0,0.0,89,0.00,,,0.00,WUHU216HW,2013-06-19 04:02:00,
2013-06-19 00:08:00,65.8,62.4,29.97,North,0,0.0,0.0,89,0.00,,,0.00,WUHU216HW,2013-06-19 04:08:00,
2013-06-19 00:14:00,65.8,62.4,29.97,North,0,0.0,0.0,89,0.00,,,0.00,WUHU216HW,2013-06-19 04:14:00,
2013-06-19 00:19:00,65.8,62.4,29.98,North,0,0.0,0.0,89,0.00,,,0.00,WUHU216HW,2013-06-19 04:19:00,
2013-06-19 00:25:00,65.8,62.1,29.98,North,0,0.0,0.0,88,0.00,,,0.00,WUHU216HW,2013-06-19 04:25:00,
2013-06-19 00:30:00,65.4,61.8,29.98,NW,315,0.0,0.0,88,0.00,,,0.00,WUHU216HW,2013-06-19 04:30:00,
2013-06-19 00:35:00,65.4,61.8,29.98,NW,315,0.0,0.0,88,0.00,,,0.00,WUHU216HW,2013-06-19 04:35:00,
2013-06-19 00:41:00,65.3,61.6,29.98,NW,315,0.0,0.0,88,0.00,,,0.00,WUHU216HW,2013-06-19 04:41:00,
2013-06-19 00:46:00,65.1,61.4,29.98,NW,315,0.0,0.0,88,0.00,,,0.00,WUHU216HW,2013-06-19 04:46:00,
2013-06-19 00:51:00,65.1,61.4,29.98,NW,315,0.0,0.0,88,0.00,,,0.00,WUHU216HW,2013-06-19 04:51:00,
2013-06-19 00:56:00,64.9,61.3,29.99,NNW,338,0.0,0.0,88,0.00,,,0.00,WUHU216HW,2013-06-19 04:56:00,
2013-06-19 01:02:00,64.7,61.3,29.98,NNW,338,0.0,0.0,88,0.00,,,0.00,WUHU216HW,2013-06-19 05:02:00,
2013-06-19 01:08:00,64.7,61.1,29.98,NNW,338,0.0,0.0,88,0.00,,,0.00,WUHU216HW,2013-06-19 05:08:00,
2013-06-19 01:13:00,64.5,60.9,29.98,NNW,338,0.0,0.0,88,0.00,,,0.00,WUHU216HW,2013-06-19 05:13:00,
2013-06-19 01:18:00,64.4,60.8,29.98,NNW,338,0.0,0.0,88,0.00,,,0.00,WUHU216HW,2013-06-19 05:18:00,
2013-06-19 01:24:00,64.2,60.6,29.98,NNW,338,0.0,0.0,88,0.00,,,0.00,WUHU216HW,2013-06-19 05:24:00,
2013-06-19 01:29:00,64.2,60.6,29.98,NNW,338,0.0,0.0,88,0.00,,,0.00,WUHU216HW,2013-06-19 05:29:00,
2013-06-19 01:35:00,64.2,60.6,29.99,NNW,338,0.0,0.0,88,0.00,,,0.00,WUHU216HW,2013-06-19 05:35:00,
2013-06-19 01:40:00,64.0,60.4,29.98,NNW,338,0.0,0.0,88,0.00,,,0.00,WUHU216HW,2013-06-19 05:40:00,
2013-06-19 01:46:00,64.0,60.4,29.98,NNW,338,0.0,0.0,88,0.00,,,0.00,WUHU216HW,2013-06-19 05:46:00,
2013-06-19 01:51:00,64.0,60.4,29.99,NNW,338,0.0,0.0,88,0.00,,,0.00,WUHU216HW,2013-06-19 05:51:00,
2013-06-19 01:56:00,63.8,60.2,29.98,NNW,338,0.0,0.0,88,0.00,,,0.00,WUHU216HW,2013-06-19 05:56:00,
2013-06-19 02:02:00,63.6,60.1,29.99,NNW,338,0.0,0.0,88,0.00,,,0.00,WUHU216HW,2013-06-19 06:02:00,
2013-06-19 02:08:00,63.6,60.1,29.99,NNW,338,0.0,0.0,88,0.00,,,0.00,WUHU216HW,2013-06-19 06:08:00,
2013-06-19 02:13:00,63.5,59.9,29.99,NNW,338,0.0,0.0,88,0.00,,,0.00,WUHU216HW,2013-06-19 06:13:00,
2013-06-19 02:19:00,63.5,59.9,29.98,North,0,0.0,0.0,88,0.00,,,0.00,WUHU216HW,2013-06-19 06:19:00,
2013-06-19 02:25:00,63.3,59.4,29.99,North,0,0.0,0.0,87,0.00,,,0.00,WUHU216HW,2013-06-19 06:25:00,
2013-06-19 02:30:00,63.3,59.4,29.98,North,0,0.0,0.0,87,0.00,,,0.00,WUHU216HW,2013-06-19 06:30:00,
2013-06-19 02:35:00,63.3,59.4,29.98,North,0,0.0,0.0,87,0.00,,,0.00,WUHU216HW,2013-06-19 06:35:00,
2013-06-19 02:41:00,63.1,59.2,29.99,North,0,0.0,0.0,87,0.00,,,0.00,WUHU216HW,2013-06-19 06:41:00,
2013-06-19 02:46:00,63.1,59.2,29.99,North,0,0.0,0.0,87,0.00,,,0.00,WUHU216HW,2013-06-19 06:46:00,
2013-06-19 02:51:00,62.9,59.0,29.99,North,0,0.0,0.0,87,0.00,,,0.00,WUHU216HW,2013-06-19 06:51:00,
2013-06-19 02:57:00,62.7,58.8,29.99,North,0,0.0,0.0,87,0.00,,,0.00,WUHU216HW,2013-06-19 06:57:00,
2013-06-19 03:02:00,62.4,58.5,29.99,North,0,0.0,0.0,87,0.00,,,0.00,WUHU216HW,2013-06-19 07:02:00,
2013-06-19 03:08:00,62.4,58.5,29.99,North,0,0.0,0.0,87,0.00,,,0.00,WUHU216HW,2013-06-19 07:08:00,
2013-06-19 03:13:00,62.2,58.3,29.99,North,0,0.0,0.0,87,0.00,,,0.00,WUHU216HW,2013-06-19 07:13:00,
2013-06-19 03:18:00,62.2,58.3,29.99,North,0,0.0,0.0,87,0.00,,,0.00,WUHU216HW,2013-06-19 07:18:00,
2013-06-19 03:23:00,62.0,58.1,29.99,North,0,0.0,0.0,87,0.00,,,0.00,WUHU216HW,2013-06-19 07:23:00,
2013-06-19 03:28:00,61.7,57.8,29.99,North,0,0.0,0.0,87,0.00,,,0.00,WUHU216HW,2013-06-19 07:28:00,
2013-06-19 03:34:00,61.5,57.6,29.99,North,0,0.0,0.0,87,0.00,,,0.00,WUHU216HW,2013-06-19 07:34:00,
2013-06-19 03:39:00,61.5,57.6,29.99,North,0,0.0,0.0,87,0.00,,,0.00,WUHU216HW,2013-06-19 07:39:00,
2013-06-19 03:45:00,61.3,57.4,29.99,North,0,0.0,0.0,87,0.00,,,0.00,WUHU216HW,2013-06-19 07:45:00,
2013-06-19 03:50:00,61.3,57.7,29.99,North,0,0.0,0.0,88,0.00,,,0.00,WUHU216HW,2013-06-19 07:50:00,
2013-06-19 03:55:00,61.1,57.6,29.99,North,0,0.0,0.0,88,0.00,,,0.00,WUHU216HW,2013-06-19 07:55:00,
2013-06-19 04:00:00,61.1,57.6,30.00,North,0,0.0,0.0,88,0.00,,,0.00,WUHU216HW,2013-06-19 08:00:00,
2013-06-19 04:05:00,60.9,57.4,29.99,North,0,0.0,0.0,88,0.00,,,0.00,WUHU216HW,2013-06-19 08:05:00,
2013-06-19 04:11:00,60.9,57.4,30.00,North,0,0.0,0.0,88,0.00,,,0.00,WUHU216HW,2013-06-19 08:11:00,
2013-06-19 04:16:00,60.6,57.0,30.00,North,0,0.0,0.0,88,0.00,,,0.00,WUHU216HW,2013-06-19 08:16:00,
2013-06-19 04:21:00,60.6,57.0,30.00,NNW,338,0.0,0.0,88,0.00,,,0.00,WUHU216HW,2013-06-19 08:21:00,
2013-06-19 04:27:00,60.4,56.5,30.00,NNW,338,0.0,0.0,87,0.00,,,0.00,WUHU216HW,2013-06-19 08:27:00,
2013-06-19 04:32:00,60.4,56.5,30.00,NNW,338,0.0,0.0,87,0.00,,,0.00,WUHU216HW,2013-06-19 08:32:00,
2013-06-19 04:38:00,60.4,56.9,30.00,NNW,338,0.0,0.0,88,0.00,,,0.00,WUHU216HW,2013-06-19 08:38:00,
2013-06-19 04:43:00,60.0,56.5,30.00,NNW,338,0.0,0.0,88,0.00,,,0.00,WUHU216HW,2013-06-19 08:43:00,
2013-06-19 04:49:00,59.9,56.5,30.00,NNW,338,0.0,0.0,88,0.00,,,0.00,WUHU216HW,2013-06-19 08:49:00,
2013-06-19 04:54:00,59.9,56.3,30.00,NNW,338,0.0,0.0,88,0.00,,,0.00,WUHU216HW,2013-06-19 08:54:00,
2013-06-19 04:59:00,59.7,56.1,30.00,NNW,338,0.0,0.0,88,0.00,,,0.00,WUHU216HW,2013-06-19 08:59:00,
2013-06-19 05:04:00,59.7,56.1,30.01,NNW,338,0.0,0.0,88,0.00,,,0.00,WUHU216HW,2013-06-19 09:04:00,
2013-06-19 05:10:00,59.5,56.0,30.01,NNW,338,0.0,0.0,88,0.00,,,0.00,WUHU216HW,2013-06-19 09:10:00,
2013-06-19 05:15:00,59.5,56.0,30.01,NNW,338,0.0,0.0,88,0.00,,,0.00,WUHU216HW,2013-06-19 09:15:00,
2013-06-19 05:21:00,59.3,55.8,30.01,NNW,338,0.0,0.0,88,0.00,,,0.00,WUHU216HW,2013-06-19 09:21:00,
2013-06-19 05:27:00,59.1,55.6,30.01,NNW,338,0.0,0.0,88,0.00,,,0.00,WUHU216HW,2013-06-19 09:27:00,
2013-06-19 05:33:00,58.8,55.2,30.02,NNW,338,0.0,0.0,88,0.00,,,0.00,WUHU216HW,2013-06-19 09:33:00,
2013-06-19 05:44:00,58.8,55.2,30.02,NNW,338,0.0,0.0,88,0.00,,,0.00,WUHU216HW,2013-06-19 09:44:00,
2013-06-19 05:49:00,59.1,55.6,30.03,NNE,23,0.0,0.0,88,0.00,,,0.00,WUHU216HW,2013-06-19 09:49:00,
2013-06-19 05:54:00,59.3,55.8,30.03,NNE,23,0.0,0.0,88,0.00,,,0.00,WUHU216HW,2013-06-19 09:54:00,
2013-06-19 05:59:00,59.3,55.8,30.03,NNE,23,0.0,0.0,88,0.00,,,0.00,WUHU216HW,2013-06-19 09:59:00,
2013-06-19 06:05:00,59.5,56.0,30.03,NNE,23,0.0,0.0,88,0.00,,,0.00,WUHU216HW,2013-06-19 10:05:00,
2013-06-19 06:10:00,59.5,56.0,30.03,NNE,23,0.0,0.0,88,0.00,,,0.00,WUHU216HW,2013-06-19 10:10:00,
2013-06-19 06:16:00,59.5,56.0,30.03,North,0,0.0,0.0,88,0.00,,,0.00,WUHU216HW,2013-06-19 10:16:00,
2013-06-19 06:21:00,59.5,56.0,30.03,NNE,23,0.0,4.0,88,0.00,,,0.00,WUHU216HW,2013-06-19 10:21:00,
2013-06-19 06:26:00,59.5,55.6,30.04,NNE,23,0.0,4.0,87,0.00,,,0.00,WUHU216HW,2013-06-19 10:26:00,
2013-06-19 06:31:00,59.7,55.8,30.03,NNE,23,0.0,0.0,87,0.00,,,0.00,WUHU216HW,2013-06-19 10:31:00,
2013-06-19 06:36:00,59.7,55.8,30.04,NNE,23,0.0,0.0,87,0.00,,,0.00,WUHU216HW,2013-06-19 10:36:00,
2013-06-19 06:42:00,59.7,55.8,30.04,NNE,23,0.0,0.0,87,0.00,,,0.00,WUHU216HW,2013-06-19 10:42:00,
2013-06-19 06:47:00,59.7,55.8,30.04,NNE,23,0.0,0.0,87,0.00,,,0.00,WUHU216HW,2013-06-19 10:47:00,
2013-06-19 06:52:00,59.9,56.0,30.04,NNE,23,0.0,0.0,87,0.00,,,0.00,WUHU216HW,2013-06-19 10:52:00,
2013-06-19 06:57:00,59.9,56.0,30.04,NNE,23,0.0,0.0,87,0.00,,,0.00,WUHU216HW,2013-06-19 10:57:00,
2013-06-19 07:03:00,59.9,56.0,30.04,NNE,23,0.0,0.0,87,0.00,,,0.00,WUHU216HW,2013-06-19 11:03:00,
2013-06-19 07:08:00,59.9,56.0,30.05,NNE,23,0.0,0.0,87,0.00,,,0.00,WUHU216HW,2013-06-19 11:08:00,
2013-06-19 07:13:00,59.9,56.0,30.05,NNE,23,0.0,0.0,87,0.00,,,0.00,WUHU216HW,2013-06-19 11:13:00,
2013-06-19 07:19:00,60.0,55.9,30.05,NNE,23,0.0,0.0,86,0.00,,,0.00,WUHU216HW,2013-06-19 11:19:00,
2013-06-19 07:25:00,60.0,55.9,30.05,NNE,23,0.0,0.0,86,0.00,,,0.00,WUHU216HW,2013-06-19 11:25:00,
2013-06-19 07:31:00,60.0,55.9,30.05,NNE,23,0.0,0.0,86,0.00,,,0.00,WUHU216HW,2013-06-19 11:31:00,
2013-06-19 07:36:00,60.2,56.0,30.06,NNE,23,0.0,0.0,86,0.00,,,0.00,WUHU216HW,2013-06-19 11:36:00,
2013-06-19 07:41:00,60.6,56.4,30.06,NNE,23,0.0,0.0,86,0.00,,,0.00,WUHU216HW,2013-06-19 11:41:00,
2013-06-19 07:46:00,60.9,56.7,30.06,NNE,23,0.0,0.0,86,0.00,,,0.00,WUHU216HW,2013-06-19 11:46:00,
2013-06-19 07:52:00,61.3,56.8,30.06,NNE,23,0.0,0.0,85,0.00,,,0.00,WUHU216HW,2013-06-19 11:52:00,
2013-06-19 07:57:00,61.5,56.9,30.06,NNE,23,2.2,2.2,85,0.00,,,0.00,WUHU216HW,2013-06-19 11:57:00,
2013-06-19 08:03:00,61.5,56.6,30.07,NNE,23,0.0,2.2,84,0.00,,,0.00,WUHU216HW,2013-06-19 12:03:00,
2013-06-19 08:08:00,61.5,56.6,30.07,NNE,23,0.0,2.2,84,0.00,,,0.00,WUHU216HW,2013-06-19 12:08:00,
2013-06-19 08:14:00,61.5,56.3,30.07,NNE,23,3.1,3.1,83,0.00,,,0.00,WUHU216HW,2013-06-19 12:14:00,
2013-06-19 08:19:00,61.5,56.3,30.07,NNE,23,0.0,3.1,83,0.00,,,0.00,WUHU216HW,2013-06-19 12:19:00,
2013-06-19 08:25:00,61.3,56.1,30.07,NNE,23,0.0,0.0,83,0.00,,,0.00,WUHU216HW,2013-06-19 12:25:00,
2013-06-19 08:31:00,61.5,56.3,30.08,NNE,23,0.0,0.0,83,0.00,,,0.00,WUHU216HW,2013-06-19 12:31:00,
2013-06-19 08:36:00,61.7,56.4,30.08,NNE,23,0.0,0.0,83,0.00,,,0.00,WUHU216HW,2013-06-19 12:36:00,
2013-06-19 08:41:00,62.4,57.1,30.08,North,0,0.0,0.0,83,0.00,,,0.00,WUHU216HW,2013-06-19 12:41:00,
2013-06-19 08:46:00,62.7,57.1,30.08,North,0,2.2,2.2,82,0.00,,,0.00,WUHU216HW,2013-06-19 12:46:00,
2013-06-19 08:52:00,62.9,57.0,30.08,North,0,0.0,3.5,81,0.00,,,0.00,WUHU216HW,2013-06-19 12:52:00,
2013-06-19 08:57:00,63.3,57.3,30.09,North,0,0.0,3.5,81,0.00,,,0.00,WUHU216HW,2013-06-19 12:57:00,
2013-06-19 09:02:00,63.6,57.7,30.09,NNE,23,0.0,0.0,81,0.00,,,0.00,WUHU216HW,2013-06-19 13:02:00,
2013-06-19 09:07:00,64.2,57.9,30.09,NNE,23,0.0,0.0,80,0.00,,,0.00,WUHU216HW,2013-06-19 13:07:00,
2013-06-19 09:12:00,64.2,57.5,30.09,NNE,23,0.0,0.0,79,0.00,,,0.00,WUHU216HW,2013-06-19 13:12:00,
2013-06-19 09:17:00,64.5,57.9,30.09,NNE,23,0.0,0.0,79,0.00,,,0.00,WUHU216HW,2013-06-19 13:17:00,
2013-06-19 09:22:00,64.9,58.2,30.10,NNE,23,0.0,0.0,79,0.00,,,0.00,WUHU216HW,2013-06-19 13:22:00,
2013-06-19 09:27:00,64.9,57.9,30.10,NNE,23,0.0,0.0,78,0.00,,,0.00,WUHU216HW,2013-06-19 13:27:00,
2013-06-19 09:33:00,65.1,58.0,30.10,NNE,23,0.0,0.0,78,0.00,,,0.00,WUHU216HW,2013-06-19 13:33:00,
2013-06-19 09:38:00,65.3,57.8,30.10,NNE,23,0.0,0.0,77,0.00,,,0.00,WUHU216HW,2013-06-19 13:38:00,
2013-06-19 09:49:00,65.4,57.6,30.10,NNE,23,2.2,2.2,76,0.00,,,0.00,WUHU216HW,2013-06-19 13:49:00,
2013-06-19 09:54:00,66.0,58.4,30.10,NNE,23,0.0,2.2,77,0.00,,,0.00,WUHU216HW,2013-06-19 13:54:00,
2013-06-19 10:00:00,66.3,58.5,30.10,NNE,23,0.0,2.6,76,0.00,,,0.00,WUHU216HW,2013-06-19 14:00:00,
2013-06-19 10:05:00,66.5,58.3,30.10,NNE,23,0.0,2.6,75,0.00,,,0.00,WUHU216HW,2013-06-19 14:05:00,
2013-06-19 10:11:00,66.9,58.7,30.10,NNE,23,0.0,0.0,75,0.00,,,0.00,WUHU216HW,2013-06-19 14:11:00,
2013-06-19 10:17:00,67.1,58.9,30.10,NNE,23,0.0,0.0,75,0.00,,,0.00,WUHU216HW,2013-06-19 14:17:00,
2013-06-19 10:23:00,67.6,59.4,30.10,NNE,23,0.0,0.0,75,0.00,,,0.00,WUHU216HW,2013-06-19 14:23:00,
2013-06-19 10:28:00,68.1,59.2,30.10,NNE,23,0.0,0.0,73,0.00,,,0.00,WUHU216HW,2013-06-19 14:28:00,
2013-06-19 10:33:00,68.3,59.3,30.10,NNE,23,0.0,0.0,73,0.00,,,0.00,WUHU216HW,2013-06-19 14:33:00,
2013-06-19 10:38:00,68.7,59.7,30.10,NNE,23,0.0,0.0,73,0.00,,,0.00,WUHU216HW,2013-06-19 14:38:00,
2013-06-19 10:44:00,69.0,59.6,30.10,NNE,23,0.0,3.5,72,0.00,,,0.00,WUHU216HW,2013-06-19 14:44:00,
2013-06-19 10:50:00,69.6,59.7,30.11,NNE,23,3.1,3.5,71,0.00,,,0.00,WUHU216HW,2013-06-19 14:50:00,
2013-06-19 10:55:00,69.6,59.7,30.11,NNE,23,0.0,3.1,71,0.00,,,0.00,WUHU216HW,2013-06-19 14:55:00,
2013-06-19 11:01:00,69.9,60.0,30.11,North,0,3.5,3.5,71,0.00,,,0.00,WUHU216HW,2013-06-19 15:01:00,
2013-06-19 11:06:00,70.3,60.4,30.11,NE,45,0.0,3.5,71,0.00,,,0.00,WUHU216HW,2013-06-19 15:06:00,
2013-06-19 11:12:00,70.5,59.8,30.11,NNE,23,0.0,0.0,69,0.00,,,0.00,WUHU216HW,2013-06-19 15:12:00,
2013-06-19 11:23:00,71.2,60.1,30.12,NNE,23,0.0,0.0,68,0.00,,,0.00,WUHU216HW,2013-06-19 15:23:00,
2013-06-19 11:28:00,71.4,60.2,30.12,NNE,23,0.0,0.0,68,0.00,,,0.00,WUHU216HW,2013-06-19 15:28:00,
2013-06-19 11:34:00,72.1,60.9,30.12,NNE,23,0.0,0.0,68,0.00,,,0.00,WUHU216HW,2013-06-19 15:34:00,
2013-06-19 11:39:00,72.3,60.7,30.12,NNE,23,0.0,0.0,67,0.00,,,0.00,WUHU216HW,2013-06-19 15:39:00,
2013-06-19 11:44:00,72.6,61.0,30.12,North,0,0.0,0.0,67,0.00,,,0.00,WUHU216HW,2013-06-19 15:44:00,
2013-06-19 11:49:00,73.2,61.6,30.12,North,0,0.0,0.0,67,0.00,,,0.00,WUHU216HW,2013-06-19 15:49:00,
2013-06-19 11:55:00,73.5,61.0,30.12,North,0,0.0,2.2,65,0.00,,,0.00,WUHU216HW,2013-06-19 15:55:00,
2013-06-19 12:01:00,73.9,61.3,30.12,North,0,0.0,2.2,65,0.00,,,0.00,WUHU216HW,2013-06-19 16:01:00,
2013-06-19 12:11:00,74.8,61.8,30.12,NNE,23,0.0,0.0,64,0.00,,,0.00,WUHU216HW,2013-06-19 16:11:00,
2013-06-19 12:16:00,75.0,61.5,30.12,NNE,23,3.1,3.1,63,0.00,,,0.00,WUHU216HW,2013-06-19 16:16:00,
2013-06-19 12:22:00,75.0,61.1,30.13,NNE,23,3.1,3.1,62,0.00,,,0.00,WUHU216HW,2013-06-19 16:22:00,
2013-06-19 12:27:00,75.2,60.4,30.12,NNE,23,0.0,3.1,60,0.00,,,0.00,WUHU216HW,2013-06-19 16:27:00,
2013-06-19 12:33:00,75.0,60.6,30.12,NE,45,0.0,3.1,61,0.00,,,0.00,WUHU216HW,2013-06-19 16:33:00,
2013-06-19 12:38:00,75.3,60.6,30.12,NNE,23,0.0,0.0,60,0.00,,,0.00,WUHU216HW,2013-06-19 16:38:00,
2013-06-19 12:44:00,75.3,60.0,30.12,North,0,0.0,0.0,59,0.00,,,0.00,WUHU216HW,2013-06-19 16:44:00,
2013-06-19 12:49:00,75.5,60.7,30.12,NNE,23,0.0,0.0,60,0.00,,,0.00,WUHU216HW,2013-06-19 16:49:00,
2013-06-19 12:54:00,75.7,59.9,30.12,NNE,23,0.0,1.1,58,0.00,,,0.00,WUHU216HW,2013-06-19 16:54:00,
2013-06-19 13:00:00,75.9,60.0,30.12,NE,45,0.0,1.1,58,0.00,,,0.00,WUHU216HW,2013-06-19 17:00:00,
2013-06-19 13:06:00,76.2,60.9,30.12,NE,45,0.0,0.0,59,0.00,,,0.00,WUHU216HW,2013-06-19 17:06:00,
2013-06-19 13:11:00,76.8,59.8,30.12,NNE,23,0.0,0.0,56,0.00,,,0.00,WUHU216HW,2013-06-19 17:11:00,
2013-06-19 13:16:00,77.0,60.0,30.12,NNE,23,0.0,0.0,56,0.00,,,0.00,WUHU216HW,2013-06-19 17:16:00,
2013-06-19 13:22:00,77.5,60.0,30.11,NNE,23,0.0,0.0,55,0.00,,,0.00,WUHU216HW,2013-06-19 17:22:00,
2013-06-19 13:27:00,77.7,60.2,30.11,NNE,23,0.0,0.0,55,0.00,,,0.00,WUHU216HW,2013-06-19 17:27:00,
2013-06-19 13:33:00,77.7,60.2,30.12,NNE,23,1.1,1.1,55,0.00,,,0.00,WUHU216HW,2013-06-19 17:33:00,
2013-06-19 13:38:00,78.0,60.0,30.11,NNE,23,0.0,1.1,54,0.00,,,0.00,WUHU216HW,2013-06-19 17:38:00,
2013-06-19 13:44:00,78.4,59.8,30.12,NNE,23,0.0,0.0,53,0.00,,,0.00,WUHU216HW,2013-06-19 17:44:00,
2013-06-19 13:49:00,78.6,60.5,30.12,NNE,23,0.0,0.0,54,0.00,,,0.00,WUHU216HW,2013-06-19 17:49:00,
2013-06-19 14:00:00,79.3,60.6,30.11,SSW,203,0.0,2.6,53,0.00,,,0.00,WUHU216HW,2013-06-19 18:00:00,
2013-06-19 14:06:00,80.0,60.8,30.11,North,0,1.1,1.1,52,0.00,,,0.00,WUHU216HW,2013-06-19 18:06:00,
2013-06-19 14:11:00,79.8,60.1,30.11,NNE,23,0.0,4.0,51,0.00,,,0.00,WUHU216HW,2013-06-19 18:11:00,
2013-06-19 14:17:00,79.7,59.9,30.11,North,0,0.0,4.0,51,0.00,,,0.00,WUHU216HW,2013-06-19 18:17:00,
2013-06-19 14:27:00,80.4,60.0,30.11,WSW,248,0.0,0.0,50,0.00,,,0.00,WUHU216HW,2013-06-19 18:27:00,
2013-06-19 14:33:00,80.7,60.4,30.11,WSW,248,0.0,0.0,50,0.00,,,0.00,WUHU216HW,2013-06-19 18:33:00,
2013-06-19 14:39:00,80.4,60.0,30.11,WSW,248,0.0,0.0,50,0.00,,,0.00,WUHU216HW,2013-06-19 18:39:00,
2013-06-19 14:45:00,81.3,61.9,30.11,WSW,248,0.0,0.0,52,0.00,,,0.00,WUHU216HW,2013-06-19 18:45:00,
2013-06-19 14:50:00,82.2,62.2,30.10,WSW,248,0.0,0.0,51,0.00,,,0.00,WUHU216HW,2013-06-19 18:50:00,
2013-06-19 14:56:00,82.5,62.0,30.10,WSW,248,0.0,0.0,50,0.00,,,0.00,WUHU216HW,2013-06-19 18:56:00,
2013-06-19 15:01:00,82.7,61.6,30.11,WSW,248,0.0,0.0,49,0.00,,,0.00,WUHU216HW,2013-06-19 19:01:00,
2013-06-19 15:07:00,82.7,60.3,30.11,WSW,248,0.0,0.0,47,0.00,,,0.00,WUHU216HW,2013-06-19 19:07:00,
2013-06-19 15:12:00,82.9,60.5,30.11,WSW,248,0.0,0.0,47,0.00,,,0.00,WUHU216HW,2013-06-19 19:12:00,
2013-06-19 15:17:00,82.9,59.9,30.11,WSW,248,0.0,0.0,46,0.00,,,0.00,WUHU216HW,2013-06-19 19:17:00,
2013-06-19 15:22:00,82.9,59.9,30.11,WSW,248,0.0,0.0,46,0.00,,,0.00,WUHU216HW,2013-06-19 19:22:00,
2013-06-19 15:28:00,82.7,60.3,30.11,WSW,248,0.0,0.0,47,0.00,,,0.00,WUHU216HW,2013-06-19 19:28:00,
2013-06-19 15:34:00,82.9,59.9,30.11,WSW,248,0.0,0.0,46,0.00,,,0.00,WUHU216HW,2013-06-19 19:34:00,
2013-06-19 15:44:00,82.7,59.1,30.11,WSW,248,0.0,0.0,45,0.00,,,0.00,WUHU216HW,2013-06-19 19:44:00,
2013-06-19 15:50:00,83.3,59.6,30.10,WSW,248,0.0,0.0,45,0.00,,,0.00,WUHU216HW,2013-06-19 19:50:00,
2013-06-19 16:01:00,82.9,58.7,30.10,WSW,248,0.0,1.7,44,0.00,,,0.00,WUHU216HW,2013-06-19 20:01:00,
2013-06-19 16:06:00,83.4,59.2,30.10,WSW,248,0.0,1.7,44,0.00,,,0.00,WUHU216HW,2013-06-19 20:06:00,
2013-06-19 16:12:00,83.4,58.5,30.10,WSW,248,0.0,0.0,43,0.00,,,0.00,WUHU216HW,2013-06-19 20:12:00,
2013-06-19 16:17:00,83.1,57.0,30.10,WSW,248,0.0,0.0,41,0.00,,,0.00,WUHU216HW,2013-06-19 20:17:00,
2013-06-19 16:23:00,83.4,57.8,30.10,WSW,248,0.0,0.0,42,0.00,,,0.00,WUHU216HW,2013-06-19 20:23:00,
2013-06-19 16:28:00,84.0,57.2,30.10,WSW,248,0.0,0.0,40,0.00,,,0.00,WUHU216HW,2013-06-19 20:28:00,
2013-06-19 16:33:00,84.0,57.2,30.10,WSW,248,0.0,0.0,40,0.00,,,0.00,WUHU216HW,2013-06-19 20:33:00,
2013-06-19 16:44:00,84.5,58.9,30.09,WSW,248,0.0,5.3,42,0.00,,,0.00,WUHU216HW,2013-06-19 20:44:00,
2013-06-19 16:50:00,84.9,59.2,30.10,WSW,248,0.0,0.0,42,0.00,,,0.00,WUHU216HW,2013-06-19 20:50:00,
2013-06-19 16:55:00,85.2,59.6,30.10,WSW,248,0.0,0.0,43,0.00,,,0.00,WUHU216HW,2013-06-19 20:55:00,
2013-06-19 17:01:00,86.1,61.0,30.09,WSW,248,0.0,0.0,43,0.00,,,0.00,WUHU216HW,2013-06-19 21:01:00,
2013-06-19 17:06:00,86.1,59.7,30.09,WSW,248,0.0,0.0,41,0.00,,,0.00,WUHU216HW,2013-06-19 21:06:00,
2013-06-19 17:11:00,85.6,59.9,30.10,WSW,248,0.0,0.0,42,0.00,,,0.00,WUHU216HW,2013-06-19 21:11:00,
2013-06-19 17:16:00,85.2,58.9,30.09,WSW,248,0.0,0.0,41,0.00,,,0.00,WUHU216HW,2013-06-19 21:16:00,
2013-06-19 17:22:00,85.2,60.2,30.10,WSW,248,0.0,0.0,43,0.00,,,0.00,WUHU216HW,2013-06-19 21:22:00,
2013-06-19 17:27:00,85.6,59.3,30.10,WSW,248,0.0,0.0,41,0.00,,,0.00,WUHU216HW,2013-06-19 21:27:00,
2013-06-19 17:33:00,85.1,59.4,30.09,WSW,248,0.0,0.0,42,0.00,,,0.00,WUHU216HW,2013-06-19 21:33:00,
2013-06-19 17:38:00,84.5,58.3,30.09,WSW,248,0.0,0.0,41,0.00,,,0.00,WUHU216HW,2013-06-19 21:38:00,
2013-06-19 17:44:00,84.2,58.6,30.10,WSW,248,0.0,0.0,42,0.00,,,0.00,WUHU216HW,2013-06-19 21:44:00,
2013-06-19 17:49:00,83.3,57.1,30.09,WSW,248,0.0,0.0,41,0.00,,,0.00,WUHU216HW,2013-06-19 21:49:00,
2013-06-19 17:54:00,82.9,57.4,30.10,WSW,248,0.0,0.0,42,0.00,,,0.00,WUHU216HW,2013-06-19 21:54:00,
2013-06-19 18:00:00,83.1,58.2,30.09,WSW,248,0.0,0.0,43,0.00,,,0.00,WUHU216HW,2013-06-19 22:00:00,
2013-06-19 18:05:00,83.1,57.6,30.09,WSW,248,0.0,0.0,42,0.00,,,0.00,WUHU216HW,2013-06-19 22:05:00,
2013-06-19 18:10:00,82.2,56.2,30.09,WSW,248,0.0,0.0,41,0.00,,,0.00,WUHU216HW,2013-06-19 22:10:00,
2013-06-19 18:15:00,81.6,55.7,30.10,WSW,248,0.0,0.0,41,0.00,,,0.00,WUHU216HW,2013-06-19 22:15:00,
2013-06-19 18:21:00,81.8,57.7,30.09,WSW,248,0.0,0.0,44,0.00,,,0.00,WUHU216HW,2013-06-19 22:21:00,
2013-06-19 18:26:00,82.2,58.6,30.10,WSW,248,0.0,0.0,45,0.00,,,0.00,WUHU216HW,2013-06-19 22:26:00,
2013-06-19 18:31:00,81.8,56.4,30.09,WSW,248,0.0,0.0,42,0.00,,,0.00,WUHU216HW,2013-06-19 22:31:00,
2013-06-19 18:36:00,81.1,55.2,30.10,WSW,248,0.0,0.0,41,0.00,,,0.00,WUHU216HW,2013-06-19 22:36:00,
2013-06-19 18:41:00,80.4,54.5,30.10,WSW,248,0.0,0.0,41,0.00,,,0.00,WUHU216HW,2013-06-19 22:41:00,
2013-06-19 18:47:00,80.0,56.7,30.10,NNE,23,0.0,0.0,45,0.00,,,0.00,WUHU216HW,2013-06-19 22:47:00,
2013-06-19 18:53:00,79.8,55.9,30.10,NNE,23,0.0,0.0,44,0.00,,,0.00,WUHU216HW,2013-06-19 22:53:00,
2013-06-19 18:58:00,79.7,57.0,30.10,NNE,23,0.0,0.0,46,0.00,,,0.00,WUHU216HW,2013-06-19 22:58:00,
2013-06-19 19:04:00,79.5,56.2,30.10,NNE,23,0.0,0.0,45,0.00,,,0.00,WUHU216HW,2013-06-19 23:04:00,
2013-06-19 19:10:00,79.3,57.9,30.11,NNE,23,0.0,0.0,48,0.00,,,0.00,WUHU216HW,2013-06-19 23:10:00,
2013-06-19 19:15:00,78.9,57.5,30.11,NNE,23,0.0,0.0,48,0.00,,,0.00,WUHU216HW,2013-06-19 23:15:00,
2013-06-19 19:21:00,78.4,57.7,30.11,NNE,23,0.0,0.0,49,0.00,,,0.00,WUHU216HW,2013-06-19 23:21:00,
2013-06-19 19:26:00,78.0,57.9,30.11,NNE,23,0.0,0.0,50,0.00,,,0.00,WUHU216HW,2013-06-19 23:26:00,
2013-06-19 19:31:00,78.0,57.9,30.11,NNE,23,0.0,0.0,50,0.00,,,0.00,WUHU216HW,2013-06-19 23:31:00,
2013-06-19 19:36:00,77.7,58.1,30.11,NNE,23,0.0,0.0,51,0.00,,,0.00,WUHU216HW,2013-06-19 23:36:00,
2013-06-19 19:41:00,77.5,58.5,30.11,NNE,23,0.0,0.0,52,0.00,,,0.00,WUHU216HW,2013-06-19 23:41:00,
2013-06-19 19:46:00,77.1,58.1,30.11,NNE,23,0.0,0.0,52,0.00,,,0.00,WUHU216HW,2013-06-19 23:46:00,
2013-06-19 19:52:00,76.8,58.3,30.11,NNE,23,0.0,0.0,53,0.00,,,0.00,WUHU216HW,2013-06-19 23:52:00,
2013-06-19 19:57:00,76.4,58.0,30.11,NNE,23,0.0,0.0,53,0.00,,,0.00,WUHU216HW,2013-06-19 23:57:00,
2013-06-19 20:03:00,75.9,58.0,30.11,NNE,23,0.0,0.0,54,0.00,,,0.00,WUHU216HW,2013-06-20 00:03:00,
2013-06-19 20:08:00,75.5,57.7,30.12,NNE,23,0.0,0.0,54,0.00,,,0.00,WUHU216HW,2013-06-20 00:08:00,
2013-06-19 20:13:00,75.3,57.5,30.12,NNE,23,0.0,0.0,54,0.00,,,0.00,WUHU216HW,2013-06-20 00:13:00,
2013-06-19 20:19:00,74.8,57.5,30.12,NNE,23,0.0,0.0,55,0.00,,,0.00,WUHU216HW,2013-06-20 00:19:00,
2013-06-19 20:24:00,74.4,57.2,30.12,NNE,23,0.0,0.0,55,0.00,,,0.00,WUHU216HW,2013-06-20 00:24:00,
2013-06-19 20:29:00,74.1,56.8,30.12,NNE,23,0.0,0.0,55,0.00,,,0.00,WUHU216HW,2013-06-20 00:29:00,
2013-06-19 20:34:00,73.2,56.4,30.12,NNE,23,0.0,0.0,56,0.00,,,0.00,WUHU216HW,2013-06-20 00:34:00,
2013-06-19 20:39:00,72.5,55.8,30.12,NNE,23,0.0,0.0,56,0.00,,,0.00,WUHU216HW,2013-06-20 00:39:00,
2013-06-19 20:44:00,71.9,55.8,30.12,NNE,23,0.0,0.0,57,0.00,,,0.00,WUHU216HW,2013-06-20 00:44:00,
2013-06-19 20:50:00,71.2,55.6,30.12,NNE,23,0.0,0.0,58,0.00,,,0.00,WUHU216HW,2013-06-20 00:50:00,
2013-06-19 20:56:00,70.3,54.8,30.12,NNE,23,0.0,0.0,58,0.00,,,0.00,WUHU216HW,2013-06-20 00:56:00,
2013-06-19 21:02:00,69.6,54.7,30.12,NNE,23,0.0,0.0,59,0.00,,,0.00,WUHU216HW,2013-06-20 01:02:00,
2013-06-19 21:07:00,69.0,54.1,30.13,NNE,23,0.0,0.0,59,0.00,,,0.00,WUHU216HW,2013-06-20 01:07:00,
2013-06-19 21:12:00,68.5,54.1,30.12,NNE,23,0.0,0.0,60,0.00,,,0.00,WUHU216HW,2013-06-20 01:12:00,
2013-06-19 21:18:00,68.1,54.1,30.13,NNE,23,0.0,0.0,61,0.00,,,0.00,WUHU216HW,2013-06-20 01:18:00,
2013-06-19 21:24:00,67.6,54.1,30.13,NNE,23,0.0,0.0,62,0.00,,,0.00,WUHU216HW,2013-06-20 01:24:00,
2013-06-19 21:29:00,67.1,53.7,30.13,NNE,23,0.0,0.0,62,0.00,,,0.00,WUHU216HW,2013-06-20 01:29:00,
2013-06-19 21:34:00,66.9,53.4,30.13,NNE,23,0.0,0.0,62,0.00,,,0.00,WUHU216HW,2013-06-20 01:34:00,
2013-06-19 21:39:00,66.5,53.5,30.13,NNE,23,0.0,0.0,63,0.00,,,0.00,WUHU216HW,2013-06-20 01:39:00,
2013-06-19 21:45:00,66.0,53.0,30.13,NNE,23,0.0,0.0,63,0.00,,,0.00,WUHU216HW,2013-06-20 01:45:00,
2013-06-19 21:55:00,65.3,53.1,30.13,NNE,23,0.0,0.0,65,0.00,,,0.00,WUHU216HW,2013-06-20 01:55:00,
2013-06-19 22:01:00,65.1,53.0,30.13,NNE,23,0.0,0.0,65,0.00,,,0.00,WUHU216HW,2013-06-20 02:01:00,
2013-06-19 22:06:00,64.5,52.9,30.14,NNE,23,0.0,0.0,66,0.00,,,0.00,WUHU216HW,2013-06-20 02:06:00,
2013-06-19 22:11:00,64.4,52.7,30.14,NNE,23,0.0,0.0,66,0.00,,,0.00,WUHU216HW,2013-06-20 02:11:00,
2013-06-19 22:16:00,64.2,52.5,30.14,NNE,23,0.0,0.0,66,0.00,,,0.00,WUHU216HW,2013-06-20 02:16:00,
2013-06-19 22:22:00,63.8,52.6,30.14,NNE,23,0.0,0.0,67,0.00,,,0.00,WUHU216HW,2013-06-20 02:22:00,
2013-06-19 22:27:00,63.5,52.3,30.14,NNE,23,0.0,0.0,67,0.00,,,0.00,WUHU216HW,2013-06-20 02:27:00,
2013-06-19 22:33:00,63.3,52.5,30.15,NNE,23,0.0,0.0,68,0.00,,,0.00,WUHU216HW,2013-06-20 02:33:00,
2013-06-19 22:38:00,62.9,52.2,30.15,NNE,23,0.0,0.0,68,0.00,,,0.00,WUHU216HW,2013-06-20 02:38:00,
2013-06-19 22:43:00,62.7,52.0,30.15,NNE,23,0.0,0.0,68,0.00,,,0.00,WUHU216HW,2013-06-20 02:43:00,
2013-06-19 22:49:00,62.4,52.1,30.16,NNE,23,0.0,0.0,69,0.00,,,0.00,WUHU216HW,2013-06-20 02:49:00,
2013-06-19 22:54:00,62.2,51.9,30.16,NNE,23,0.0,0.0,69,0.00,,,0.00,WUHU216HW,2013-06-20 02:54:00,
2013-06-19 23:00:00,61.8,51.6,30.16,NNE,23,0.0,0.0,69,0.00,,,0.00,WUHU216HW,2013-06-20 03:00:00,
2013-06-19 23:05:00,61.7,51.8,30.16,NNE,23,0.0,0.0,70,0.00,,,0.00,WUHU216HW,2013-06-20 03:05:00,
2013-06-19 23:11:00,61.5,51.7,30.16,NNE,23,0.0,0.0,70,0.00,,,0.00,WUHU216HW,2013-06-20 03:11:00,
2013-06-19 23:16:00,61.3,51.9,30.16,NNE,23,0.0,0.0,71,0.00,,,0.00,WUHU216HW,2013-06-20 03:16:00,
2013-06-19 23:22:00,60.9,51.6,30.16,NNE,23,0.0,0.0,71,0.00,,,0.00,WUHU216HW,2013-06-20 03:22:00,
2013-06-19 23:28:00,60.6,51.2,30.16,NNE,23,0.0,0.0,71,0.00,,,0.00,WUHU216HW,2013-06-20 03:28:00,
2013-06-19 23:33:00,60.6,51.6,30.16,NNE,23,0.0,0.0,72,0.00,,,0.00,WUHU216HW,2013-06-20 03:33:00,
2013-06-19 23:38:00,60.4,51.4,30.16,NNE,23,0.0,0.0,72,0.00,,,0.00,WUHU216HW,2013-06-20 03:38:00,
2013-06-19 23:43:00,60.2,51.6,30.16,NNE,23,0.0,0.0,73,0.00,,,0.00,WUHU216HW,2013-06-20 03:43:00,
2013-06-19 23:49:00,60.0,51.4,30.17,NNE,23,0.0,0.0,73,0.00,,,0.00,WUHU216HW,2013-06-20 03:49:00,
2013-06-19 23:54:00,59.9,51.2,30.17,NNE,23,0.0,0.0,73,0.00,,,0.00,WUHU216HW,2013-06-20 03:54:00,
2013-06-19 23:59:00,59.5,50.9,30.17,NNE,23,0.0,0.0,73,0.00,,,0.00,WUHU216HW,2013-06-20 03:59:00,